Rechercher aéroport 
image banner adimage banner adimage banner ad
image banner ad

71CL - Gunnersfield Ranch

Situé à Delevan, United States

ICAO - 71CL, IATA -

Données fournies par Airmate  

Information générale

Coordonnées: N39°21'10" W122°5'38"
Élévation : 62 feet MSL.
Variation magnétique : 17° East
Voir autres Aéroports à California

Données opérationnelles

Special qualification required
Heure actuelle UTC:
Heure actuelle locale:
Météo à : KOVE - Oroville Muni ( 43 km )
METAR: KOVE 020553Z AUTO 16010KT 10SM CLR 29/09 A2998 RMK AO2 SLP153 T02890094 10383 20289 51021
Voir NOTAMs / SUP AIP / TFR affectant cet aéroport [VIEW]
Fréquences de communication: [VIEW]

Pistes:

Identifiant RWYQFULongueur (ft)Largeur (ft)SurfaceLDA (ft)
16257040ASPH
34257040ASPH

Coordonnées de l'aéroport

Adresse: Delevan United States

Vue satellite de 71CL